Time;durP1;ratioP1;P1;durP2;ratioP2;P2;SDS_P1;SDS_P2;PMS_P1;PMS_P2;Temp;Humidity;BMP_temperature;BMP_pressure;BME280_temperature;BME280_humidity;BME280_pressure;Samples;Min_cycle;Max_cycle;Signal;HPM_P1;HPM_P2
2022/05/08 00:00:56;;;;;;;6.57;5.40;;;14.10;99.90;;;;;;2611996;54;20395;-78
2022/05/08 00:03:22;;;;;;;8.90;6.23;;;14.10;99.90;;;;;;2610515;54;20406;-77
2022/05/08 00:05:48;;;;;;;13.23;6.90;;;14.00;99.90;;;;;;2611340;54;20190;-78
2022/05/08 00:08:14;;;;;;;10.40;6.47;;;14.00;99.90;;;;;;2612263;46;20289;-78
2022/05/08 00:10:40;;;;;;;6.50;5.50;;;14.00;99.90;;;;;;2611959;54;20165;-76
2022/05/08 00:13:06;;;;;;;6.77;5.80;;;13.90;99.90;;;;;;2611751;47;21185;-76
2022/05/08 00:15:32;;;;;;;11.80;6.23;;;13.90;99.90;;;;;;2612049;39;21234;-83
2022/05/08 00:17:58;;;;;;;7.17;5.27;;;13.90;99.90;;;;;;2613307;54;20401;-84
2022/05/08 00:20:25;;;;;;;9.53;5.70;;;13.70;99.90;;;;;;2613212;54;20411;-76
2022/05/08 00:22:50;;;;;;;10.43;6.77;;;13.70;99.90;;;;;;2611285;47;20419;-77
2022/05/08 00:25:16;;;;;;;8.60;6.50;;;13.60;99.90;;;;;;2611376;54;20905;-78
2022/05/08 00:27:42;;;;;;;9.80;5.67;;;13.60;99.90;;;;;;2612844;54;20147;-78
2022/05/08 00:30:08;;;;;;;8.33;5.53;;;13.50;99.90;;;;;;2611038;54;20154;-80
2022/05/08 00:32:34;;;;;;;8.00;5.73;;;13.50;99.90;;;;;;2612791;47;20663;-78
2022/05/08 00:35:00;;;;;;;16.53;6.20;;;13.50;99.90;;;;;;2612165;54;20407;-79
2022/05/08 00:37:26;;;;;;;8.30;5.90;;;13.50;99.90;;;;;;2612073;47;20239;-78
2022/05/08 00:39:52;;;;;;;13.13;5.80;;;13.40;99.90;;;;;;2611528;54;20147;-77
2022/05/08 00:42:18;;;;;;;10.03;7.57;;;13.40;99.90;;;;;;2612658;39;20474;-77
2022/05/08 00:44:44;;;;;;;9.03;5.83;;;13.30;99.90;;;;;;2612407;54;20904;-76
2022/05/08 00:47:10;;;;;;;10.57;7.27;;;13.30;99.90;;;;;;2612110;54;20450;-76
2022/05/08 00:49:36;;;;;;;9.50;7.17;;;13.30;99.90;;;;;;2612666;39;20202;-78
2022/05/08 00:52:05;;;;;;;7.67;6.97;;;13.30;99.90;;;;;;2611975;54;20151;-78
2022/05/08 00:54:31;;;;;;;7.70;5.90;;;13.30;99.90;;;;;;2609722;54;20407;-82
2022/05/08 00:56:57;;;;;;;12.20;7.43;;;13.30;99.90;;;;;;2611895;47;20499;-82
2022/05/08 00:59:25;;;;;;;8.17;6.57;;;13.30;99.90;;;;;;2612853;46;20431;-83
2022/05/08 01:01:51;;;;;;;12.23;7.57;;;13.30;99.90;;;;;;2612662;54;20154;-83
2022/05/08 01:04:16;;;;;;;8.83;7.97;;;13.30;99.90;;;;;;2613433;54;20380;-83
2022/05/08 01:06:44;;;;;;;8.00;7.30;;;13.30;99.90;;;;;;2614432;39;20406;-82
2022/05/08 01:09:10;;;;;;;7.77;6.93;;;13.20;99.90;;;;;;2612834;54;20400;-84
2022/05/08 01:11:36;;;;;;;13.07;7.50;;;13.30;99.90;;;;;;2613438;39;20879;-83
2022/05/08 01:14:03;;;;;;;9.97;8.13;;;13.30;99.90;;;;;;2612582;54;20155;-83
2022/05/08 01:16:29;;;;;;;9.57;6.83;;;13.20;99.90;;;;;;2612105;39;20800;-78
2022/05/08 01:18:55;;;;;;;11.73;8.43;;;13.20;99.90;;;;;;2611713;54;20399;-79
2022/05/08 01:21:41;;;;;;;9.10;8.20;;;13.20;99.90;;;;;;2613460;54;20379;-79
2022/05/08 01:24:08;;;;;;;8.40;6.50;;;13.10;99.90;;;;;;2614286;54;20468;-79
2022/05/08 01:26:34;;;;;;;8.23;7.40;;;13.10;99.90;;;;;;2611907;54;20404;-75
2022/05/08 01:29:03;;;;;;;13.97;8.07;;;13.00;99.90;;;;;;2611637;54;20442;-76
2022/05/08 01:31:31;;;;;;;8.47;7.43;;;13.00;99.90;;;;;;2612430;54;20135;-76
2022/05/08 01:33:57;;;;;;;9.30;6.70;;;13.00;99.90;;;;;;2613210;54;20998;-77
2022/05/08 01:36:23;;;;;;;10.33;7.80;;;13.10;99.90;;;;;;2612320;54;20392;-78
2022/05/08 01:38:50;;;;;;;9.97;8.40;;;13.00;99.90;;;;;;2613279;54;21237;-79
2022/05/08 01:41:16;;;;;;;10.93;8.53;;;13.00;99.90;;;;;;2612224;54;20159;-78
2022/05/08 01:43:42;;;;;;;9.30;7.73;;;12.90;99.90;;;;;;2613269;54;20406;-79
2022/05/08 01:46:09;;;;;;;11.27;8.93;;;12.80;99.90;;;;;;2611079;54;20379;-79
2022/05/08 01:48:35;;;;;;;11.57;9.53;;;12.80;99.90;;;;;;2613241;54;20446;-79
2022/05/08 01:51:03;;;;;;;9.60;8.60;;;12.70;99.90;;;;;;2612714;54;20915;-81
2022/05/08 01:53:33;;;;;;;11.37;8.60;;;12.70;99.90;;;;;;2614181;54;20392;-81
2022/05/08 01:56:02;;;;;;;16.70;9.13;;;12.50;99.90;;;;;;2613159;54;20435;-79
2022/05/08 01:58:29;;;;;;;10.60;8.30;;;12.50;99.90;;;;;;2611508;54;20410;-78
2022/05/08 02:00:57;;;;;;;11.37;9.97;;;12.50;99.90;;;;;;2611673;54;20403;-78
2022/05/08 02:03:24;;;;;;;12.97;10.40;;;12.40;99.90;;;;;;2613759;39;20719;-79
2022/05/08 02:05:50;;;;;;;13.23;10.57;;;12.30;99.90;;;;;;2611424;54;21414;-76
2022/05/08 02:08:17;;;;;;;12.13;9.37;;;12.20;99.90;;;;;;2612542;54;21184;-76
2022/05/08 02:10:44;;;;;;;17.50;11.67;;;12.10;99.90;;;;;;2612442;54;20415;-79
2022/05/08 02:13:10;;;;;;;14.77;10.70;;;12.00;99.90;;;;;;2612363;54;20402;-79
2022/05/08 02:15:36;;;;;;;17.47;11.00;;;12.00;99.90;;;;;;2612817;54;20515;-79
2022/05/08 02:18:07;;;;;;;16.03;12.03;;;12.00;99.90;;;;;;2612740;39;20482;-78
2022/05/08 02:20:33;;;;;;;16.47;12.10;;;12.00;99.90;;;;;;2613806;54;20543;-78
2022/05/08 02:22:59;;;;;;;21.27;11.60;;;12.00;99.90;;;;;;2612158;47;20415;-78
2022/05/08 02:25:25;;;;;;;15.30;11.47;;;12.00;99.90;;;;;;2612009;54;20436;-78
2022/05/08 02:27:51;;;;;;;20.17;13.93;;;12.10;99.90;;;;;;2611302;51;20161;-78
2022/05/08 02:30:22;;;;;;;16.83;12.97;;;12.10;99.90;;;;;;2613059;54;20526;-79
2022/05/08 02:32:51;;;;;;;18.70;12.80;;;12.00;99.90;;;;;;2612793;54;20376;-78
2022/05/08 02:35:20;;;;;;;15.70;13.80;;;12.00;99.90;;;;;;2611965;47;20399;-76
2022/05/08 02:37:48;;;;;;;16.10;12.60;;;12.10;99.90;;;;;;2615101;54;20483;-77
2022/05/08 02:40:15;;;;;;;16.67;12.80;;;12.00;99.90;;;;;;2614375;54;20403;-77
2022/05/08 02:42:42;;;;;;;16.00;11.13;;;12.00;99.90;;;;;;2614149;54;20413;-79
2022/05/08 02:45:09;;;;;;;14.43;12.67;;;11.90;99.90;;;;;;2614232;47;20395;-77
2022/05/08 02:47:37;;;;;;;20.80;12.13;;;11.90;99.90;;;;;;2613507;54;20397;-78
2022/05/08 02:50:05;;;;;;;15.63;12.80;;;11.80;99.90;;;;;;2611405;54;20403;-75
2022/05/08 02:52:32;;;;;;;14.10;12.60;;;11.80;99.90;;;;;;2611686;39;21190;-75
2022/05/08 02:58:32;;;;;;;17.53;13.57;;;11.80;99.90;;;;;;2613415;47;20480;-78
2022/05/08 03:00:38;;;;;;;22.50;13.87;;;11.70;99.90;;;;;;2613748;54;20547;-78
2022/05/08 03:03:05;;;;;;;24.93;13.37;;;11.70;99.90;;;;;;2613018;54;20408;-79
2022/05/08 03:05:31;;;;;;;16.23;13.77;;;11.60;99.90;;;;;;2612433;54;20396;-75
2022/05/08 03:07:57;;;;;;;26.87;15.10;;;11.50;99.90;;;;;;2613210;54;20404;-75
2022/05/08 03:10:23;;;;;;;19.30;15.00;;;11.50;99.90;;;;;;2612186;54;20427;-77
2022/05/08 03:12:48;;;;;;;17.60;13.93;;;11.50;99.90;;;;;;2613270;54;20266;-78
2022/05/08 03:15:16;;;;;;;19.53;15.63;;;11.50;99.90;;;;;;2613514;54;20239;-80
2022/05/08 03:17:41;;;;;;;17.40;13.27;;;11.50;99.90;;;;;;2613036;54;20157;-80
2022/05/08 03:20:09;;;;;;;17.47;12.57;;;11.40;99.90;;;;;;2612513;54;20400;-76
2022/05/08 03:22:34;;;;;;;18.67;13.23;;;11.30;99.90;;;;;;2613904;39;20260;-76
2022/05/08 03:25:00;;;;;;;17.33;13.03;;;11.30;99.90;;;;;;2613889;54;20396;-77
2022/05/08 03:27:26;;;;;;;17.33;12.27;;;11.30;99.90;;;;;;2612606;54;20181;-76
2022/05/08 03:29:52;;;;;;;15.30;12.43;;;11.10;99.90;;;;;;2612173;54;21021;-74
2022/05/08 03:32:18;;;;;;;17.73;13.30;;;11.10;99.90;;;;;;2613267;47;20151;-75
2022/05/08 03:34:43;;;;;;;16.80;13.27;;;11.10;99.90;;;;;;2612491;54;20178;-78
2022/05/08 03:37:09;;;;;;;19.27;11.53;;;11.00;99.90;;;;;;2612022;54;20154;-77
2022/05/08 03:39:35;;;;;;;19.70;13.13;;;11.10;99.90;;;;;;2613266;54;20147;-79
2022/05/08 03:42:01;;;;;;;19.40;12.50;;;11.10;99.90;;;;;;2613016;54;20151;-80
2022/05/08 03:44:26;;;;;;;17.67;11.83;;;11.10;99.90;;;;;;2613780;54;20201;-84
2022/05/08 03:46:52;;;;;;;21.27;14.40;;;11.10;99.90;;;;;;2614180;54;20757;-84
2022/05/08 03:49:18;;;;;;;18.53;12.70;;;11.10;99.90;;;;;;2614723;54;20182;-78
2022/05/08 03:51:44;;;;;;;21.30;13.23;;;11.10;99.90;;;;;;2613097;54;20182;-78
2022/05/08 03:54:10;;;;;;;20.60;13.23;;;11.10;99.90;;;;;;2613550;47;20194;-75
2022/05/08 03:56:36;;;;;;;16.73;13.47;;;11.00;99.90;;;;;;2612459;54;20173;-76
2022/05/08 03:59:02;;;;;;;18.80;14.97;;;11.10;99.90;;;;;;2611700;54;20143;-76
2022/05/08 04:01:27;;;;;;;19.47;13.43;;;11.10;99.90;;;;;;2612241;54;20495;-78
2022/05/08 04:03:53;;;;;;;16.90;13.93;;;11.10;99.90;;;;;;2611530;39;20671;-78
2022/05/08 04:06:19;;;;;;;26.77;15.30;;;11.20;99.90;;;;;;2611424;54;20234;-78
2022/05/08 04:08:45;;;;;;;18.13;13.40;;;11.00;99.90;;;;;;2611727;54;20143;-78
2022/05/08 04:11:11;;;;;;;22.03;14.97;;;11.00;99.90;;;;;;2611845;54;20178;-78
2022/05/08 04:13:36;;;;;;;14.50;11.33;;;10.90;99.90;;;;;;2611302;54;20185;-77
2022/05/08 04:16:18;;;;;;;18.37;12.17;;;10.90;99.90;;;;;;2613016;54;20189;-78
2022/05/08 04:18:45;;;;;;;15.20;9.70;;;10.90;99.90;;;;;;2612747;39;20770;-79
2022/05/08 04:21:11;;;;;;;15.97;9.23;;;10.90;99.90;;;;;;2611773;54;20384;-77
2022/05/08 04:24:22;;;;;;;15.93;9.07;;;10.80;99.90;;;;;;2611948;54;20506;-78
2022/05/08 04:26:23;;;;;;;21.07;9.30;;;10.80;99.90;;;;;;2610634;54;20158;-78
2022/05/08 04:28:49;;;;;;;22.90;8.63;;;10.70;99.90;;;;;;2612805;47;20982;-78
2022/05/08 04:31:15;;;;;;;20.73;8.37;;;10.70;99.90;;;;;;2612720;54;20419;-78
2022/05/08 04:33:40;;;;;;;13.13;7.57;;;10.70;99.90;;;;;;2612695;54;20790;-78
2022/05/08 04:36:06;;;;;;;15.03;8.23;;;10.70;99.90;;;;;;2612738;54;20162;-79
2022/05/08 04:38:32;;;;;;;15.97;7.53;;;10.70;99.90;;;;;;2613161;54;20708;-78
2022/05/08 04:40:58;;;;;;;14.27;6.27;;;10.60;99.90;;;;;;2612336;54;20446;-78
2022/05/08 04:43:25;;;;;;;15.63;6.77;;;10.60;99.90;;;;;;2613933;54;20166;-78
2022/05/08 04:45:51;;;;;;;14.03;7.20;;;10.50;99.90;;;;;;2611408;54;20435;-74
2022/05/08 04:48:17;;;;;;;10.73;6.33;;;10.40;99.90;;;;;;2613072;54;20412;-75
2022/05/08 04:50:43;;;;;;;10.77;6.17;;;10.40;99.90;;;;;;2615810;54;20158;-79
2022/05/08 04:53:09;;;;;;;18.00;7.83;;;10.40;99.90;;;;;;2618419;54;20409;-78
2022/05/08 04:55:34;;;;;;;21.50;6.90;;;10.30;99.90;;;;;;2614309;54;20405;-75
2022/05/08 04:58:00;;;;;;;8.53;5.67;;;10.30;99.90;;;;;;2612811;54;20367;-77
2022/05/08 05:00:26;;;;;;;16.13;6.73;;;10.30;99.90;;;;;;2612791;54;20433;-84
2022/05/08 05:02:53;;;;;;;23.30;7.70;;;10.30;99.90;;;;;;2614662;54;20147;-82
2022/05/08 05:05:18;;;;;;;17.73;6.70;;;10.40;99.90;;;;;;2614127;54;20389;-79
2022/05/08 05:07:44;;;;;;;23.40;6.60;;;10.50;99.90;;;;;;2613856;54;20395;-78
2022/05/08 05:10:11;;;;;;;15.87;8.40;;;10.60;99.90;;;;;;2613235;54;20952;-78
2022/05/08 05:12:38;;;;;;;20.00;7.23;;;10.50;99.90;;;;;;2611959;54;20995;-79
2022/05/08 05:15:06;;;;;;;22.37;6.83;;;10.70;99.90;;;;;;2612014;54;20445;-76
2022/05/08 05:17:32;;;;;;;14.07;6.60;;;10.70;99.90;;;;;;2612471;54;20396;-77
2022/05/08 05:19:58;;;;;;;13.17;6.70;;;10.80;99.90;;;;;;2613204;54;20410;-79
2022/05/08 05:22:25;;;;;;;24.47;8.77;;;10.80;99.90;;;;;;2612369;39;20469;-77
2022/05/08 05:24:51;;;;;;;14.80;7.13;;;10.90;99.90;;;;;;2612753;54;20383;-80
2022/05/08 05:27:17;;;;;;;12.47;6.10;;;10.90;99.90;;;;;;2612090;54;20477;-79
2022/05/08 05:29:43;;;;;;;16.83;6.80;;;11.10;99.90;;;;;;2612215;54;20400;-81
2022/05/08 05:32:09;;;;;;;18.20;6.63;;;11.20;99.90;;;;;;2612158;54;20416;-81
2022/05/08 05:34:35;;;;;;;15.70;7.67;;;11.30;99.90;;;;;;2613543;54;20157;-77
2022/05/08 05:37:01;;;;;;;13.17;7.07;;;11.40;99.90;;;;;;2614874;39;20792;-79
2022/05/08 05:39:26;;;;;;;12.47;6.80;;;11.50;99.90;;;;;;2616018;47;20642;-87
2022/05/08 05:41:53;;;;;;;19.30;7.80;;;11.60;99.90;;;;;;2623273;54;20151;-88
2022/05/08 05:44:19;;;;;;;22.40;8.57;;;11.80;99.90;;;;;;2621773;54;20150;-86
2022/05/08 05:49:30;;;;;;;17.93;8.07;;;12.30;99.90;;;;;;2619831;54;21031;-77
2022/05/08 05:51:57;;;;;;;18.93;7.90;;;12.40;99.90;;;;;;2614219;54;21043;-77
2022/05/08 05:54:23;;;;;;;14.60;7.87;;;12.70;99.50;;;;;;2613804;47;20415;-80
2022/05/08 05:56:49;;;;;;;33.43;8.63;;;12.60;97.70;;;;;;2612895;39;20824;-77
2022/05/08 05:59:15;;;;;;;22.10;9.63;;;12.50;94.60;;;;;;2613900;54;20911;-76
2022/05/08 06:01:42;;;;;;;22.03;9.47;;;12.10;96.10;;;;;;2613546;54;20395;-79
2022/05/08 06:04:07;;;;;;;16.30;8.80;;;11.80;99.90;;;;;;2614186;39;20796;-80
2022/05/08 06:06:33;;;;;;;23.07;8.60;;;11.60;99.90;;;;;;2613141;54;20406;-77
2022/05/08 06:08:59;;;;;;;23.03;9.47;;;11.60;99.90;;;;;;2613776;47;20190;-74
2022/05/08 06:11:25;;;;;;;18.50;8.50;;;11.60;99.90;;;;;;2611172;54;20418;-74
2022/05/08 06:13:54;;;;;;;24.73;7.80;;;11.50;99.90;;;;;;2612994;54;20154;-75
2022/05/08 06:16:19;;;;;;;14.67;7.93;;;11.40;99.90;;;;;;2613094;54;20167;-79
2022/05/08 06:18:45;;;;;;;18.13;10.63;;;11.30;99.90;;;;;;2611810;54;20430;-78
2022/05/08 06:21:11;;;;;;;22.80;8.30;;;11.30;99.90;;;;;;2610961;54;20158;-77
2022/05/08 06:23:37;;;;;;;16.27;7.43;;;11.30;99.90;;;;;;2611522;54;20811;-77
2022/05/08 06:26:08;;;;;;;15.30;8.40;;;11.50;99.90;;;;;;2613905;54;20415;-76
2022/05/08 06:28:34;;;;;;;19.97;9.70;;;11.50;99.90;;;;;;2612425;39;20764;-78
2022/05/08 06:31:01;;;;;;;21.13;8.70;;;11.50;99.90;;;;;;2612626;54;20396;-75
2022/05/08 06:33:27;;;;;;;26.00;9.23;;;11.40;99.90;;;;;;2612278;54;20410;-74
2022/05/08 06:35:55;;;;;;;21.40;9.90;;;11.40;99.90;;;;;;2613372;54;20382;-80
2022/05/08 06:38:21;;;;;;;20.60;8.90;;;11.40;99.90;;;;;;2612863;54;20418;-80
2022/05/08 06:40:47;;;;;;;20.90;8.87;;;11.40;99.90;;;;;;2612881;47;20407;-81
2022/05/08 06:43:12;;;;;;;17.77;7.63;;;11.60;99.90;;;;;;2611981;54;20217;-78
2022/05/08 06:45:38;;;;;;;14.43;8.23;;;11.80;99.90;;;;;;2613287;54;20143;-80
2022/05/08 06:48:08;;;;;;;16.60;8.07;;;11.90;99.90;;;;;;2614152;39;20537;-79
2022/05/08 06:50:35;;;;;;;11.23;6.40;;;11.90;99.80;;;;;;2611832;47;20411;-78
2022/05/08 06:53:04;;;;;;;9.87;6.30;;;12.00;96.80;;;;;;2613411;54;20412;-78
2022/05/08 06:55:30;;;;;;;16.43;6.30;;;12.10;95.70;;;;;;2613200;54;21014;-77
2022/05/08 06:57:58;;;;;;;14.67;7.90;;;12.10;95.00;;;;;;2612603;54;20454;-80
2022/05/08 07:03:09;;;;;;;15.00;7.30;;;12.00;93.90;;;;;;2612679;39;20879;-75
2022/05/08 07:05:40;;;;;;;14.87;7.87;;;12.00;96.00;;;;;;2629182;36;20443;-74
2022/05/08 07:08:06;;;;;;;18.10;6.97;;;12.20;93.10;;;;;;2612641;39;20766;-75
2022/05/08 07:10:32;;;;;;;17.37;7.60;;;12.30;93.10;;;;;;2613079;54;20407;-77
2022/05/08 07:12:58;;;;;;;15.73;7.70;;;12.30;91.90;;;;;;2612999;54;20417;-78
2022/05/08 07:15:24;;;;;;;13.50;7.43;;;12.50;90.70;;;;;;2613090;54;20983;-77
2022/05/08 07:17:50;;;;;;;13.00;6.70;;;12.60;89.30;;;;;;2611409;39;20462;-77
2022/05/08 07:20:16;;;;;;;16.13;7.30;;;12.60;85.80;;;;;;2612533;54;20586;-78
2022/05/08 07:22:41;;;;;;;14.03;7.27;;;12.60;85.80;;;;;;2613120;54;20139;-78
2022/05/08 07:25:08;;;;;;;13.50;6.50;;;12.70;87.90;;;;;;2613338;47;20402;-79
2022/05/08 07:27:36;;;;;;;16.33;6.83;;;13.00;87.20;;;;;;2612826;54;20155;-80
2022/05/08 07:30:04;;;;;;;15.60;6.50;;;13.10;80.00;;;;;;2611428;54;20392;-80
2022/05/08 07:32:30;;;;;;;13.80;5.97;;;13.10;76.30;;;;;;2613354;47;20403;-79
2022/05/08 07:37:43;;;;;;;14.63;7.00;;;13.80;71.00;;;;;;2613849;47;20395;-79
2022/05/08 07:40:13;;;;;;;14.23;7.27;;;14.00;69.00;;;;;;2612548;54;20503;-78
2022/05/08 07:42:42;;;;;;;18.70;6.70;;;14.20;63.00;;;;;;2612745;47;20396;-78
2022/05/08 07:45:08;;;;;;;11.63;6.60;;;14.20;65.80;;;;;;2613357;39;20805;-80
2022/05/08 07:47:35;;;;;;;17.47;7.10;;;14.30;67.10;;;;;;2613854;54;20151;-82
2022/05/08 07:50:26;;;;;;;20.60;5.73;;;14.20;68.60;;;;;;2619104;54;20479;-88
2022/05/08 07:52:54;;;;;;;10.57;5.30;;;14.40;64.70;;;;;;2625544;46;20404;-88
2022/05/08 07:55:20;;;;;;;15.93;6.60;;;14.30;64.70;;;;;;2616674;54;20463;-77
2022/05/08 07:57:46;;;;;;;12.97;5.90;;;14.50;64.40;;;;;;2611891;54;20395;-77
2022/05/08 08:00:13;;;;;;;13.70;7.10;;;14.30;65.90;;;;;;2612055;54;20150;-81
2022/05/08 08:02:42;;;;;;;11.63;6.47;;;14.30;61.70;;;;;;2612543;54;20408;-80
2022/05/08 08:05:08;;;;;;;16.47;6.93;;;14.50;63.50;;;;;;2611822;54;20432;-80
2022/05/08 08:07:34;;;;;;;15.93;5.97;;;14.60;60.70;;;;;;2612442;39;20861;-82
2022/05/08 08:09:59;;;;;;;10.67;6.00;;;14.70;58.60;;;;;;2611644;47;20522;-74
2022/05/08 08:12:26;;;;;;;12.67;7.43;;;14.60;56.80;;;;;;2609429;54;20421;-75
2022/05/08 08:14:52;;;;;;;15.20;6.10;;;14.70;57.60;;;;;;2611353;54;20519;-77
2022/05/08 08:17:17;;;;;;;14.23;6.37;;;14.80;55.60;;;;;;2612433;54;20161;-77
2022/05/08 08:19:43;;;;;;;13.30;6.70;;;14.80;54.30;;;;;;2611809;54;20150;-75
2022/05/08 08:22:09;;;;;;;19.60;7.10;;;15.00;51.50;;;;;;2611646;54;20150;-75
2022/05/08 08:24:36;;;;;;;18.60;9.47;;;14.70;51.90;;;;;;2611623;54;20154;-78
2022/05/08 08:27:02;;;;;;;14.57;7.83;;;14.70;53.60;;;;;;2613346;46;20230;-78
2022/05/08 08:29:29;;;;;;;13.03;6.13;;;15.00;50.50;;;;;;2613977;47;20491;-79
2022/05/08 08:31:55;;;;;;;12.00;5.77;;;14.80;49.20;;;;;;2613080;54;20422;-78
2022/05/08 08:34:21;;;;;;;21.13;6.80;;;14.80;48.00;;;;;;2614027;54;20943;-78
2022/05/08 08:36:49;;;;;;;12.23;5.77;;;15.60;45.60;;;;;;2613919;54;20392;-77
2022/05/08 08:39:15;;;;;;;9.53;5.80;;;16.20;36.40;;;;;;2614415;54;20402;-78
2022/05/08 08:41:45;;;;;;;12.40;6.03;;;16.70;30.40;;;;;;2615289;39;20785;-78
2022/05/08 08:49:52;;;;;;;8.33;5.70;;;17.40;26.90;;;;;;2614537;54;20402;-78
2022/05/08 08:52:21;;;;;;;15.57;6.27;;;17.30;22.80;;;;;;2614591;54;20434;-78
2022/05/08 08:54:48;;;;;;;9.60;5.77;;;17.40;23.30;;;;;;2619807;39;20788;-86
2022/05/08 08:57:15;;;;;;;14.50;5.40;;;17.60;18.30;;;;;;2624438;47;20403;-87
2022/05/08 08:59:41;;;;;;;10.70;5.93;;;17.50;17.00;;;;;;2620288;54;20434;-75
2022/05/08 09:02:18;;;;;;;8.00;5.43;;;17.30;14.50;;;;;;2613447;54;20477;-75
2022/05/08 09:04:51;;;;;;;15.97;5.37;;;17.00;12.40;;;;;;2612821;54;20158;-75
2022/05/08 09:07:39;;;;;;;8.23;6.27;;;17.10;12.30;;;;;;2613039;54;20399;-74
2022/05/08 09:10:10;;;;;;;13.40;4.90;;;17.10;12.30;;;;;;2613742;47;20396;-77
2022/05/08 09:12:38;;;;;;;10.77;5.33;;;16.90;11.50;;;;;;2613096;54;20396;-78
2022/05/08 09:15:24;;;;;;;8.93;5.47;;;16.80;10.10;;;;;;2613008;54;20415;-77
2022/05/08 09:18:07;;;;;;;9.10;5.63;;;16.40;12.60;;;;;;2614206;54;20404;-78
2022/05/08 09:20:36;;;;;;;6.20;4.93;;;16.20;10.60;;;;;;2614273;54;20391;-80
2022/05/08 09:23:14;;;;;;;8.93;5.13;;;15.80;7.80;;;;;;2615104;54;20582;-81
2022/05/08 09:25:45;;;;;;;9.17;5.23;;;15.50;12.50;;;;;;2614136;54;20426;-80
2022/05/08 09:28:26;;;;;;;14.43;6.17;;;15.40;13.80;;;;;;2613374;46;20446;-77
2022/05/08 09:30:54;;;;;;;11.33;5.40;;;15.30;13.60;;;;;;2613482;54;21309;-76
2022/05/08 09:33:23;;;;;;;10.70;5.97;;;15.00;10.50;;;;;;2612956;54;20384;-77
2022/05/08 09:35:49;;;;;;;13.03;4.73;;;14.80;12.70;;;;;;2615202;47;20399;-78
2022/05/08 09:38:15;;;;;;;17.40;6.50;;;15.10;12.10;;;;;;2614747;31;20909;-81
2022/05/08 09:40:41;;;;;;;10.10;4.77;;;15.00;10.50;;;;;;2615118;39;20848;-80
2022/05/08 09:43:28;;;;;;;11.67;4.83;;;15.10;12.70;;;;;;2614666;54;20158;-81
2022/05/08 09:45:59;;;;;;;11.87;6.13;;;15.10;11.70;;;;;;2614689;54;20166;-77
2022/05/08 09:48:29;;;;;;;7.20;4.73;;;15.00;10.60;;;;;;2612641;54;20491;-76
2022/05/08 09:51:06;;;;;;;7.43;4.43;;;15.20;9.90;;;;;;2613868;39;20570;-77
2022/05/08 09:53:34;;;;;;;18.60;6.53;;;15.40;9.90;;;;;;2618424;54;20400;-76
2022/05/08 09:56:02;;;;;;;8.17;4.77;;;15.60;12.20;;;;;;2616990;39;20772;-80
2022/05/08 09:58:27;;;;;;;9.30;5.00;;;15.80;12.10;;;;;;2614088;54;20451;-78
2022/05/08 10:00:56;;;;;;;7.17;4.17;;;16.10;7.80;;;;;;2612658;54;20537;-75
2022/05/08 10:03:23;;;;;;;8.50;5.03;;;15.80;6.60;;;;;;2611666;54;20189;-75
2022/05/08 10:05:53;;;;;;;12.73;5.30;;;15.90;6.80;;;;;;2612999;54;20495;-79
2022/05/08 10:08:22;;;;;;;9.13;5.33;;;15.90;6.20;;;;;;2614205;54;20399;-79
2022/05/08 10:14:00;;;;;;;10.80;4.93;;;16.30;5.20;;;;;;2613624;54;20405;-76
2022/05/08 10:16:55;;;;;;;8.10;5.50;;;16.30;5.60;;;;;;2612879;54;20431;-77
2022/05/08 10:19:27;;;;;;;6.60;4.30;;;16.70;3.80;;;;;;2612771;54;20405;-79
2022/05/08 10:21:56;;;;;;;11.33;5.03;;;16.90;2.10;;;;;;2614207;54;20377;-80
2022/05/08 10:24:32;;;;;;;7.40;4.87;;;17.50;1.00;;;;;;2614264;54;20383;-79
2022/05/08 10:27:20;;;;;;;7.90;3.90;;;18.00;1.00;;;;;;2613670;54;20389;-81
2022/05/08 10:29:53;;;;;;;6.17;4.53;;;18.40;1.00;;;;;;2612559;54;20388;-80
2022/05/08 10:32:28;;;;;;;9.40;5.87;;;18.80;1.00;;;;;;2613057;54;20498;-79
2022/05/08 10:35:16;;;;;;;8.50;5.13;;;19.50;1.00;;;;;;2612843;47;20493;-78
2022/05/08 10:38:16;;;;;;;8.30;5.37;;;20.00;1.00;;;;;;2612492;54;20434;-77
2022/05/08 10:40:42;;;;;;;8.30;5.67;;;20.00;1.00;;;;;;2611907;54;21102;-77
2022/05/08 10:43:14;;;;;;;9.20;4.70;;;20.00;1.00;;;;;;2612901;54;20376;-77
2022/05/08 10:45:43;;;;;;;14.20;5.50;;;20.50;1.00;;;;;;2612318;54;20399;-81
2022/05/08 10:48:17;;;;;;;7.77;5.10;;;20.70;1.00;;;;;;2614239;54;20525;-81
2022/05/08 10:50:48;;;;;;;10.90;5.50;;;20.60;1.00;;;;;;2613433;47;20439;-79
2022/05/08 10:53:32;;;;;;;9.30;5.30;;;19.80;1.00;;;;;;2613792;39;20810;-78
2022/05/08 10:56:09;;;;;;;9.77;5.13;;;20.20;1.00;;;;;;2614343;46;20400;-81
2022/05/08 10:58:41;;;;;;;12.10;7.17;;;20.30;1.00;;;;;;2614748;47;20403;-81
2022/05/08 11:01:09;;;;;;;8.07;6.40;;;20.60;1.00;;;;;;2614573;54;20433;-80
2022/05/08 11:03:35;;;;;;;7.73;5.70;;;20.90;1.00;;;;;;2613387;47;20404;-81
2022/05/08 11:06:04;;;;;;;10.43;5.10;;;20.50;1.00;;;;;;2613555;54;20422;-75
2022/05/08 11:08:36;;;;;;;11.33;5.43;;;20.80;1.00;;;;;;2612649;54;20403;-74
2022/05/08 11:11:09;;;;;;;7.63;4.90;;;21.40;1.00;;;;;;2613961;39;20651;-76
2022/05/08 11:13:41;;;;;;;8.37;6.00;;;21.20;1.00;;;;;;2613162;54;20400;-76
2022/05/08 11:16:07;;;;;;;5.30;4.73;;;21.40;1.00;;;;;;2614007;54;20399;-77
2022/05/08 11:18:33;;;;;;;7.43;6.10;;;21.50;1.00;;;;;;2614298;54;20396;-77
2022/05/08 11:21:04;;;;;;;6.90;4.57;;;21.50;1.00;;;;;;2616759;47;20414;-87
2022/05/08 11:23:32;;;;;;;9.70;5.40;;;21.40;1.00;;;;;;2617719;47;20142;-87
2022/05/08 11:26:00;;;;;;;9.30;5.83;;;21.20;1.00;;;;;;2614379;47;20399;-77
2022/05/08 11:28:28;;;;;;;7.93;4.63;;;21.20;1.00;;;;;;2613363;46;20406;-77
2022/05/08 11:30:56;;;;;;;6.50;4.37;;;21.10;1.00;;;;;;2614061;39;20805;-77
2022/05/08 11:36:30;;;;;;;6.97;5.10;;;21.30;1.00;;;;;;2614873;31;20871;-77
2022/05/08 11:39:00;;;;;;;6.23;5.70;;;20.70;1.00;;;;;;2613785;54;20414;-78
2022/05/08 11:41:32;;;;;;;8.27;5.40;;;20.70;1.00;;;;;;2613585;47;20471;-76
2022/05/08 11:44:02;;;;;;;9.60;5.80;;;21.10;1.00;;;;;;2613980;54;20391;-76
2022/05/08 11:46:36;;;;;;;7.90;5.80;;;21.20;1.00;;;;;;2614707;54;20408;-77
2022/05/08 11:49:15;;;;;;;9.83;5.70;;;21.60;1.00;;;;;;2613570;54;20509;-86
2022/05/08 11:51:46;;;;;;;9.97;6.07;;;21.70;1.00;;;;;;2618231;54;20955;-86
2022/05/08 11:54:30;;;;;;;8.63;5.10;;;21.90;1.00;;;;;;2619476;39;20847;-85
2022/05/08 11:57:18;;;;;;;8.57;5.30;;;22.00;1.00;;;;;;2617841;54;20411;-86
2022/05/08 11:59:49;;;;;;;6.53;5.00;;;21.90;1.00;;;;;;2616901;54;20416;-82
2022/05/08 12:02:16;;;;;;;8.10;6.40;;;22.10;1.00;;;;;;2615095;54;20450;-81
2022/05/08 12:05:02;;;;;;;10.63;6.57;;;22.10;1.00;;;;;;2612644;47;20395;-80
2022/05/08 12:07:41;;;;;;;7.47;5.73;;;22.20;1.00;;;;;;2613183;54;20380;-79
2022/05/08 12:10:09;;;;;;;7.30;6.57;;;22.10;1.00;;;;;;2612338;54;20411;-81
2022/05/08 12:12:37;;;;;;;10.50;6.27;;;22.40;1.00;;;;;;2613327;54;20419;-79
2022/05/08 12:15:10;;;;;;;8.53;6.30;;;22.60;1.00;;;;;;2612614;39;20560;-81
2022/05/08 12:17:42;;;;;;;7.83;6.70;;;22.60;1.00;;;;;;2613576;54;20372;-81
2022/05/08 12:20:14;;;;;;;7.50;6.77;;;22.70;1.00;;;;;;2613334;54;20403;-80
2022/05/08 12:22:42;;;;;;;10.50;7.17;;;22.90;1.00;;;;;;2613005;54;20530;-80
2022/05/08 12:25:14;;;;;;;10.33;6.50;;;22.90;1.00;;;;;;2614300;54;20535;-85
2022/05/08 12:28:03;;;;;;;5.97;4.97;;;22.30;1.00;;;;;;2615511;54;20419;-84
2022/05/08 12:30:29;;;;;;;11.40;6.33;;;22.30;1.00;;;;;;2612481;54;20432;-79
2022/05/08 12:32:55;;;;;;;9.17;4.90;;;22.40;1.00;;;;;;2611371;54;20458;-79
2022/05/08 12:35:21;;;;;;;9.20;5.50;;;22.50;1.00;;;;;;2611077;54;20151;-76
2022/05/08 12:37:49;;;;;;;8.30;6.43;;;22.80;1.00;;;;;;2612030;54;20418;-79
2022/05/08 12:40:17;;;;;;;10.20;6.00;;;22.60;1.00;;;;;;2611376;47;20408;-80
2022/05/08 12:42:43;;;;;;;8.20;5.23;;;22.50;1.00;;;;;;2611314;54;21323;-77
2022/05/08 12:45:10;;;;;;;6.93;5.20;;;22.30;1.00;;;;;;2611373;47;20428;-78
2022/05/08 12:47:36;;;;;;;9.50;4.67;;;22.70;1.00;;;;;;2610862;54;20391;-77
2022/05/08 12:50:03;;;;;;;6.97;4.40;;;22.70;1.00;;;;;;2611522;47;21177;-74
2022/05/08 12:52:29;;;;;;;7.00;4.97;;;23.00;1.00;;;;;;2610668;54;20423;-75
2022/05/08 12:54:55;;;;;;;7.50;4.63;;;23.20;1.00;;;;;;2613245;54;20398;-87
2022/05/08 13:00:06;;;;;;;10.50;5.47;;;22.90;1.00;;;;;;2613829;54;20154;-80
2022/05/08 13:02:33;;;;;;;11.07;4.10;;;22.60;1.00;;;;;;2611547;39;20897;-82
2022/05/08 13:04:59;;;;;;;9.17;4.20;;;22.50;1.00;;;;;;2613711;39;20477;-77
2022/05/08 13:07:25;;;;;;;7.40;4.80;;;22.90;1.00;;;;;;2612138;54;20406;-76
2022/05/08 13:09:51;;;;;;;7.63;4.07;;;22.70;1.00;;;;;;2614247;47;20400;-81
2022/05/08 13:12:18;;;;;;;9.20;4.00;;;22.80;1.00;;;;;;2613094;39;20538;-80